createdAt,value
2022-11-05T00:00:02.429Z,11.00
2022-11-05T00:05:44.264Z,12.40
2022-11-05T00:10:47.345Z,14.10
2022-11-05T00:16:08.824Z,14.00
2022-11-05T00:21:29.958Z,14.90
2022-11-05T00:26:32.631Z,17.30
2022-11-05T00:31:35.541Z,12.50
2022-11-05T00:36:38.240Z,11.80
2022-11-05T00:41:41.041Z,9.90
2022-11-05T00:46:43.715Z,10.20
2022-11-05T00:51:46.439Z,14.50
2022-11-05T00:56:49.240Z,13.20
2022-11-05T01:01:52.005Z,14.40
2022-11-05T01:06:55.545Z,13.70
2022-11-05T01:11:58.212Z,9.40
2022-11-05T01:17:00.944Z,14.90
2022-11-05T01:22:03.662Z,13.50
2022-11-05T01:27:06.547Z,12.80
2022-11-05T01:32:09.362Z,13.60
2022-11-05T01:37:12.061Z,14.00
2022-11-05T01:42:20.383Z,12.90
2022-11-05T01:47:28.199Z,12.20
2022-11-05T01:52:35.526Z,13.60
2022-11-05T01:57:38.267Z,13.00
2022-11-05T02:02:41.063Z,11.30
2022-11-05T02:07:47.189Z,10.10
2022-11-05T02:12:49.893Z,15.20
2022-11-05T02:18:20.947Z,13.60
2022-11-05T02:23:26.405Z,13.90
2022-11-05T02:28:47.282Z,12.00
2022-11-05T02:33:59.064Z,20.20
2022-11-05T02:39:48.141Z,15.70
2022-11-05T02:45:10.556Z,13.20
2022-11-05T02:51:00.337Z,9.90
2022-11-05T02:56:09.669Z,12.50
2022-11-05T03:01:13.072Z,15.70
2022-11-05T03:06:23.380Z,15.00
2022-11-05T03:11:33.226Z,11.40
2022-11-05T03:16:42.265Z,12.00
2022-11-05T03:21:50.798Z,15.60
2022-11-05T03:27:02.508Z,12.30
2022-11-05T03:32:08.126Z,14.10
2022-11-05T03:37:11.690Z,10.90
2022-11-05T03:42:18.525Z,12.70
2022-11-05T03:47:30.009Z,16.20
2022-11-05T03:52:40.559Z,14.40
2022-11-05T03:57:49.743Z,13.60
2022-11-05T04:02:52.736Z,14.10
2022-11-05T04:08:14.683Z,15.00
2022-11-05T04:13:26.926Z,12.40
2022-11-05T04:18:29.636Z,10.70
2022-11-05T04:23:51.160Z,12.60
2022-11-05T04:29:12.834Z,15.30
2022-11-05T04:34:16.629Z,11.00
2022-11-05T04:39:20.868Z,9.50
2022-11-05T04:44:23.667Z,11.60
2022-11-05T04:49:26.340Z,13.30
2022-11-05T04:54:29.055Z,14.20
2022-11-05T04:59:31.762Z,14.30
2022-11-05T05:04:34.445Z,13.70
2022-11-05T05:09:37.160Z,16.40
2022-11-05T05:14:39.903Z,15.60
2022-11-05T05:20:01.453Z,13.10
2022-11-05T05:25:04.804Z,14.00
2022-11-05T05:30:08.730Z,16.10
2022-11-05T05:35:12.168Z,15.10
2022-11-05T05:40:14.953Z,17.20
2022-11-05T05:45:17.650Z,10.70
2022-11-05T05:50:20.350Z,15.90
2022-11-05T05:55:23.129Z,19.80
2022-11-05T06:00:25.877Z,18.10
2022-11-05T06:05:28.660Z,16.20
2022-11-05T06:10:31.590Z,15.60
2022-11-05T06:15:36.038Z,16.90
2022-11-05T06:20:39.066Z,17.70
2022-11-05T06:25:41.755Z,14.20
2022-11-05T06:30:50.760Z,16.00
2022-11-05T06:35:54.375Z,23.60
2022-11-05T06:41:04.570Z,17.90
2022-11-05T06:46:12.315Z,13.80
2022-11-05T06:51:15.597Z,19.00
2022-11-05T06:56:18.375Z,20.70
2022-11-05T07:01:21.484Z,14.30
2022-11-05T07:06:24.323Z,25.20
2022-11-05T07:11:26.971Z,18.70
2022-11-05T07:16:29.881Z,18.60
2022-11-05T07:21:32.549Z,16.60
2022-11-05T07:26:35.396Z,20.30
2022-11-05T07:31:38.093Z,20.70
2022-11-05T07:36:40.898Z,18.00
2022-11-05T07:41:43.594Z,20.30
2022-11-05T07:46:46.388Z,23.00
2022-11-05T07:51:49.095Z,18.20
2022-11-05T07:56:51.835Z,23.80
2022-11-05T08:01:54.704Z,21.90
2022-11-05T08:06:57.702Z,23.10
2022-11-05T08:12:03.070Z,26.80
2022-11-05T08:17:06.173Z,23.60
2022-11-05T08:22:08.976Z,28.70
2022-11-05T08:27:11.688Z,26.30
2022-11-05T08:32:15.092Z,29.90
2022-11-05T08:37:17.988Z,22.70
2022-11-05T08:42:20.799Z,25.20
2022-11-05T08:47:23.802Z,26.40
2022-11-05T08:52:26.481Z,22.70
2022-11-05T08:57:29.188Z,31.00
2022-11-05T09:02:31.937Z,24.20
2022-11-05T09:07:34.703Z,26.90
2022-11-05T09:12:37.604Z,27.70
2022-11-05T09:17:41.033Z,26.40
2022-11-05T09:22:43.819Z,25.10
2022-11-05T09:27:46.504Z,26.50
2022-11-05T09:32:49.321Z,26.60
2022-11-05T09:37:55.546Z,28.60
2022-11-05T09:43:02.138Z,26.60
2022-11-05T09:48:15.863Z,32.10
2022-11-05T09:53:20.331Z,27.80
2022-11-05T09:58:35.383Z,27.30
2022-11-05T10:03:44.806Z,28.30
2022-11-05T10:08:52.806Z,26.10
2022-11-05T10:14:12.663Z,26.40
2022-11-05T10:19:25.625Z,26.90
2022-11-05T10:24:28.536Z,31.80
2022-11-05T10:29:34.546Z,26.00
2022-11-05T10:34:39.636Z,31.00
2022-11-05T10:39:42.438Z,31.90
2022-11-05T10:44:55.125Z,28.20
2022-11-05T10:50:01.970Z,25.50
2022-11-05T10:55:16.751Z,29.80
2022-11-05T11:00:21.864Z,26.50
2022-11-05T11:05:33.662Z,25.30
2022-11-05T11:10:43.058Z,24.10
2022-11-05T11:15:45.769Z,32.70
2022-11-05T11:20:48.470Z,27.60
2022-11-05T11:26:00.929Z,30.60
2022-11-05T11:31:14.238Z,24.00
2022-11-05T11:36:19.700Z,25.60
2022-11-05T11:41:30.165Z,29.60
2022-11-05T11:46:35.384Z,26.30
2022-11-05T11:51:49.449Z,34.00
2022-11-05T11:56:52.773Z,26.70
2022-11-05T12:02:17.935Z,26.30
2022-11-05T12:08:13.390Z,22.20
2022-11-05T12:13:18.940Z,20.90
2022-11-05T12:18:59.151Z,17.80
2022-11-05T12:24:34.376Z,18.60
2022-11-05T12:30:11.910Z,18.00
2022-11-05T12:35:32.865Z,16.80
2022-11-05T12:40:38.404Z,15.40
2022-11-05T12:45:51.756Z,15.60
2022-11-05T12:51:36.139Z,15.30
2022-11-05T12:56:50.019Z,15.40
2022-11-05T13:02:06.273Z,13.20
2022-11-05T13:07:13.765Z,16.70
2022-11-05T13:12:20.825Z,16.50
2022-11-05T13:17:54.052Z,16.90
2022-11-05T13:23:40.039Z,16.50
2022-11-05T13:28:54.116Z,13.20
2022-11-05T13:33:57.754Z,19.30
2022-11-05T13:39:13.372Z,15.80
2022-11-05T13:44:44.133Z,14.30
2022-11-05T13:50:22.211Z,11.30
2022-11-05T13:55:33.984Z,15.40
2022-11-05T14:00:48.921Z,13.90
2022-11-05T14:06:04.116Z,11.00
2022-11-05T14:11:21.349Z,13.10
2022-11-05T14:16:29.581Z,16.90
2022-11-05T14:21:47.433Z,13.90
2022-11-05T14:27:02.426Z,11.50
2022-11-05T14:32:26.218Z,12.50
2022-11-05T14:37:50.625Z,16.50
2022-11-05T14:43:03.008Z,17.10
2022-11-05T14:48:23.550Z,18.90
2022-11-05T14:53:39.339Z,26.30
2022-11-05T14:58:43.945Z,23.60
2022-11-05T15:04:16.481Z,16.80
2022-11-05T15:09:29.229Z,16.60
2022-11-05T15:14:36.829Z,14.20
2022-11-05T15:19:41.437Z,15.40
2022-11-05T15:24:44.158Z,12.50
2022-11-05T15:29:46.996Z,13.70
2022-11-05T15:34:54.753Z,14.50
2022-11-05T15:39:57.612Z,12.90
2022-11-05T15:45:00.435Z,22.30
2022-11-05T15:50:14.644Z,19.60
2022-11-05T15:55:22.736Z,13.60
2022-11-05T16:00:28.282Z,17.50
2022-11-05T16:05:34.369Z,18.60
2022-11-05T16:10:38.806Z,13.20
2022-11-05T16:15:53.893Z,14.10
2022-11-05T16:21:08.175Z,12.60
2022-11-05T16:32:05.696Z,15.80
2022-11-05T16:37:13.506Z,13.30
2022-11-05T16:42:22.383Z,12.20
2022-11-05T16:47:26.592Z,12.70
2022-11-05T16:52:29.580Z,14.10
2022-11-05T16:57:33.014Z,12.70
2022-11-05T17:02:35.796Z,16.60
2022-11-05T17:07:41.394Z,17.80
2022-11-05T17:12:45.350Z,40.40
2022-11-05T17:17:48.707Z,18.30
2022-11-05T17:22:51.386Z,15.30
2022-11-05T17:27:55.865Z,16.60
2022-11-05T17:32:59.215Z,12.40
2022-11-05T17:38:02.068Z,15.10
2022-11-05T17:43:05.728Z,13.70
2022-11-05T17:48:10.138Z,17.60
2022-11-05T17:53:14.041Z,17.00
2022-11-05T17:58:17.468Z,14.60
2022-11-05T18:03:20.146Z,13.30
2022-11-05T18:08:23.088Z,14.50
2022-11-05T18:13:25.810Z,12.20
2022-11-05T18:18:28.536Z,14.10
2022-11-05T18:23:31.288Z,12.90
2022-11-05T18:28:34.088Z,13.30
2022-11-05T18:33:36.889Z,13.10
2022-11-05T18:38:39.691Z,10.80
2022-11-05T18:43:42.763Z,15.80
2022-11-05T18:48:45.500Z,13.60
2022-11-05T18:53:48.203Z,11.60
2022-11-05T18:59:14.781Z,13.40
2022-11-05T19:04:16.414Z,14.60
2022-11-05T19:09:19.130Z,14.00
2022-11-05T19:14:21.794Z,18.70
2022-11-05T19:19:24.916Z,16.20
2022-11-05T19:24:28.081Z,17.60
2022-11-05T19:29:30.848Z,17.80
2022-11-05T19:34:33.545Z,18.10
2022-11-05T19:39:36.347Z,17.20
2022-11-05T19:44:39.045Z,20.00
2022-11-05T19:49:41.742Z,18.10
2022-11-05T19:54:46.081Z,15.60
2022-11-05T19:59:50.517Z,16.20
2022-11-05T20:04:53.325Z,16.90
2022-11-05T20:09:56.093Z,13.70
2022-11-05T20:14:58.777Z,13.90
2022-11-05T20:20:01.613Z,16.70
2022-11-05T20:25:04.915Z,17.60
2022-11-05T20:30:08.501Z,14.60
2022-11-05T20:35:11.334Z,15.40
2022-11-05T20:40:14.288Z,19.80
2022-11-05T20:45:17.044Z,14.80
2022-11-05T20:50:19.721Z,18.00
2022-11-05T20:55:22.465Z,14.40
2022-11-05T21:00:25.147Z,16.40
2022-11-05T21:05:32.722Z,15.30
2022-11-05T21:10:38.088Z,19.50
2022-11-05T21:15:49.240Z,12.00
2022-11-05T21:20:52.430Z,12.50
2022-11-05T21:25:55.794Z,12.50
2022-11-05T21:31:03.354Z,16.60
2022-11-05T21:36:09.316Z,16.90
2022-11-05T21:41:12.766Z,13.30
2022-11-05T21:46:15.464Z,14.30
2022-11-05T21:51:37.087Z,14.40
2022-11-05T21:56:58.580Z,8.60
2022-11-05T22:02:01.921Z,15.00
2022-11-05T22:07:06.298Z,13.10
2022-11-05T22:12:09.737Z,13.30
2022-11-05T22:17:13.750Z,12.60
2022-11-05T22:22:16.766Z,17.10
2022-11-05T22:27:23.843Z,20.40
2022-11-05T22:32:26.656Z,16.80
2022-11-05T22:37:29.352Z,14.70
2022-11-05T22:42:32.549Z,18.00
2022-11-05T22:47:35.675Z,12.70
2022-11-05T22:52:38.442Z,15.40
2022-11-05T22:57:41.178Z,13.90
2022-11-05T23:02:44.268Z,14.20
2022-11-05T23:08:19.647Z,13.90
2022-11-05T23:13:22.347Z,15.50
2022-11-05T23:18:43.682Z,13.60
2022-11-05T23:24:04.291Z,12.00
2022-11-05T23:29:06.978Z,13.40
2022-11-05T23:34:09.803Z,12.00
2022-11-05T23:39:12.604Z,12.00
2022-11-05T23:44:33.790Z,14.90
2022-11-05T23:49:36.536Z,17.30
2022-11-05T23:54:39.215Z,15.20
2022-11-05T23:59:41.919Z,17.60
